sensor_id;sensor_type;location;lat;lon;timestamp;temperature;humidity
23769;DHT22;12064;50.890;5.424;2022-08-19T00:04:13;29.70;71.90
23769;DHT22;12064;50.890;5.424;2022-08-19T00:13:04;29.70;71.90
23769;DHT22;12064;50.890;5.424;2022-08-19T00:21:56;29.70;71.70
23769;DHT22;12064;50.890;5.424;2022-08-19T00:30:49;29.70;71.80
23769;DHT22;12064;50.890;5.424;2022-08-19T00:39:42;29.60;71.90
23769;DHT22;12064;50.890;5.424;2022-08-19T00:48:33;29.70;71.90
23769;DHT22;12064;50.890;5.424;2022-08-19T00:57:30;29.70;71.80
23769;DHT22;12064;50.890;5.424;2022-08-19T01:06:22;29.70;71.70
23769;DHT22;12064;50.890;5.424;2022-08-19T01:15:17;29.70;71.70
23769;DHT22;12064;50.890;5.424;2022-08-19T01:24:11;29.60;71.80
23769;DHT22;12064;50.890;5.424;2022-08-19T01:33:05;29.70;71.70
23769;DHT22;12064;50.890;5.424;2022-08-19T01:41:56;29.60;71.90
23769;DHT22;12064;50.890;5.424;2022-08-19T01:50:47;29.60;71.90
23769;DHT22;12064;50.890;5.424;2022-08-19T01:59:40;29.60;72.00
23769;DHT22;12064;50.890;5.424;2022-08-19T02:08:33;29.60;71.90
23769;DHT22;12064;50.890;5.424;2022-08-19T02:17:25;29.60;71.90
23769;DHT22;12064;50.890;5.424;2022-08-19T02:26:16;29.40;72.40
23769;DHT22;12064;50.890;5.424;2022-08-19T02:35:07;29.60;71.90
23769;DHT22;12064;50.890;5.424;2022-08-19T02:44:01;29.50;72.00
23769;DHT22;12064;50.890;5.424;2022-08-19T02:52:52;29.50;72.00
23769;DHT22;12064;50.890;5.424;2022-08-19T03:01:46;29.50;71.90
23769;DHT22;12064;50.890;5.424;2022-08-19T03:10:44;29.50;72.00
23769;DHT22;12064;50.890;5.424;2022-08-19T03:19:36;29.40;72.00
23769;DHT22;12064;50.890;5.424;2022-08-19T03:28:28;29.40;72.20
23769;DHT22;12064;50.890;5.424;2022-08-19T03:37:21;29.50;71.80
23769;DHT22;12064;50.890;5.424;2022-08-19T03:46:18;29.50;71.60
23769;DHT22;12064;50.890;5.424;2022-08-19T03:55:10;29.40;72.00
23769;DHT22;12064;50.890;5.424;2022-08-19T04:04:04;29.50;71.60
23769;DHT22;12064;50.890;5.424;2022-08-19T04:12:55;29.40;72.00
23769;DHT22;12064;50.890;5.424;2022-08-19T04:21:48;29.40;72.00
23769;DHT22;12064;50.890;5.424;2022-08-19T04:30:44;29.50;71.60
23769;DHT22;12064;50.890;5.424;2022-08-19T04:39:35;29.40;72.00
23769;DHT22;12064;50.890;5.424;2022-08-19T04:48:44;29.50;71.60
23769;DHT22;12064;50.890;5.424;2022-08-19T04:57:36;29.30;72.80
23769;DHT22;12064;50.890;5.424;2022-08-19T05:06:31;29.50;71.60
23769;DHT22;12064;50.890;5.424;2022-08-19T05:15:23;29.50;71.50
23769;DHT22;12064;50.890;5.424;2022-08-19T05:24:14;29.40;71.50
23769;DHT22;12064;50.890;5.424;2022-08-19T05:33:07;29.30;71.90
23769;DHT22;12064;50.890;5.424;2022-08-19T05:42:05;29.50;71.40
23769;DHT22;12064;50.890;5.424;2022-08-19T05:50:57;29.40;71.60
23769;DHT22;12064;50.890;5.424;2022-08-19T05:59:49;29.50;71.40
23769;DHT22;12064;50.890;5.424;2022-08-19T06:08:44;29.40;71.30
23769;DHT22;12064;50.890;5.424;2022-08-19T06:17:42;29.50;71.30
23769;DHT22;12064;50.890;5.424;2022-08-19T06:26:36;29.60;71.10
23769;DHT22;12064;50.890;5.424;2022-08-19T06:35:27;29.50;71.30
23769;DHT22;12064;50.890;5.424;2022-08-19T06:44:21;29.50;71.10
23769;DHT22;12064;50.890;5.424;2022-08-19T06:53:12;29.50;71.10
23769;DHT22;12064;50.890;5.424;2022-08-19T07:02:04;29.50;71.30
23769;DHT22;12064;50.890;5.424;2022-08-19T07:10:56;29.40;71.20
23769;DHT22;12064;50.890;5.424;2022-08-19T07:19:48;29.50;71.50
23769;DHT22;12064;50.890;5.424;2022-08-19T07:28:41;29.40;71.30
23769;DHT22;12064;50.890;5.424;2022-08-19T07:37:33;29.40;71.60
23769;DHT22;12064;50.890;5.424;2022-08-19T07:46:27;29.30;71.60
23769;DHT22;12064;50.890;5.424;2022-08-19T07:55:25;29.40;71.20
23769;DHT22;12064;50.890;5.424;2022-08-19T08:04:19;29.30;71.40
23769;DHT22;12064;50.890;5.424;2022-08-19T08:13:28;29.70;70.90
23769;DHT22;12064;50.890;5.424;2022-08-19T08:22:21;29.50;71.00
23769;DHT22;12064;50.890;5.424;2022-08-19T08:31:30;29.50;71.10
23769;DHT22;12064;50.890;5.424;2022-08-19T08:40:29;29.30;71.40
23769;DHT22;12064;50.890;5.424;2022-08-19T09:16:54;29.40;71.20
23769;DHT22;12064;50.890;5.424;2022-08-19T09:25:48;29.60;70.80
23769;DHT22;12064;50.890;5.424;2022-08-19T09:34:43;29.70;70.60
23769;DHT22;12064;50.890;5.424;2022-08-19T09:43:35;29.80;70.50
23769;DHT22;12064;50.890;5.424;2022-08-19T09:52:26;29.80;70.60
23769;DHT22;12064;50.890;5.424;2022-08-19T10:01:20;29.90;70.40
23769;DHT22;12064;50.890;5.424;2022-08-19T10:10:12;29.90;71.10
23769;DHT22;12064;50.890;5.424;2022-08-19T10:19:03;29.90;70.10
23769;DHT22;12064;50.890;5.424;2022-08-19T10:27:56;29.80;70.20
23769;DHT22;12064;50.890;5.424;2022-08-19T10:36:46;29.90;70.50
23769;DHT22;12064;50.890;5.424;2022-08-19T10:45:38;29.90;70.20
23769;DHT22;12064;50.890;5.424;2022-08-19T10:54:28;29.90;70.20
23769;DHT22;12064;50.890;5.424;2022-08-19T11:03:37;30.00;70.20
23769;DHT22;12064;50.890;5.424;2022-08-19T11:12:31;29.90;70.30
23769;DHT22;12064;50.890;5.424;2022-08-19T11:21:28;29.90;70.30
23769;DHT22;12064;50.890;5.424;2022-08-19T11:30:22;29.90;70.10
23769;DHT22;12064;50.890;5.424;2022-08-19T11:39:17;29.90;71.00
23769;DHT22;12064;50.890;5.424;2022-08-19T11:48:08;29.90;70.30
23769;DHT22;12064;50.890;5.424;2022-08-19T11:56:59;29.90;70.30
23769;DHT22;12064;50.890;5.424;2022-08-19T12:05:53;29.90;70.10
23769;DHT22;12064;50.890;5.424;2022-08-19T12:14:43;29.90;70.20
23769;DHT22;12064;50.890;5.424;2022-08-19T12:23:37;29.90;70.30
23769;DHT22;12064;50.890;5.424;2022-08-19T12:32:28;29.90;70.30
23769;DHT22;12064;50.890;5.424;2022-08-19T12:41:22;29.90;70.50
23769;DHT22;12064;50.890;5.424;2022-08-19T12:50:12;29.80;70.50
23769;DHT22;12064;50.890;5.424;2022-08-19T12:59:06;29.90;70.40
23769;DHT22;12064;50.890;5.424;2022-08-19T13:08:01;29.90;70.50
23769;DHT22;12064;50.890;5.424;2022-08-19T13:16:52;29.90;70.50
23769;DHT22;12064;50.890;5.424;2022-08-19T13:25:42;29.90;70.30
23769;DHT22;12064;50.890;5.424;2022-08-19T13:34:36;30.00;70.10
23769;DHT22;12064;50.890;5.424;2022-08-19T13:43:27;30.00;70.30
23769;DHT22;12064;50.890;5.424;2022-08-19T13:52:18;30.00;70.40
23769;DHT22;12064;50.890;5.424;2022-08-19T14:01:09;30.00;70.40
23769;DHT22;12064;50.890;5.424;2022-08-19T14:10:00;29.90;70.30
23769;DHT22;12064;50.890;5.424;2022-08-19T14:18:51;29.90;70.40
23769;DHT22;12064;50.890;5.424;2022-08-19T14:27:43;29.90;70.30
23769;DHT22;12064;50.890;5.424;2022-08-19T14:36:33;30.00;70.30
23769;DHT22;12064;50.890;5.424;2022-08-19T14:45:28;30.00;70.30
23769;DHT22;12064;50.890;5.424;2022-08-19T14:54:19;29.90;70.40
23769;DHT22;12064;50.890;5.424;2022-08-19T15:03:09;30.00;70.30
23769;DHT22;12064;50.890;5.424;2022-08-19T15:12:01;30.00;70.40
23769;DHT22;12064;50.890;5.424;2022-08-19T15:20:55;29.90;70.40
23769;DHT22;12064;50.890;5.424;2022-08-19T15:29:47;30.00;70.50
23769;DHT22;12064;50.890;5.424;2022-08-19T15:38:38;30.00;70.50
23769;DHT22;12064;50.890;5.424;2022-08-19T15:47:30;30.00;70.40
23769;DHT22;12064;50.890;5.424;2022-08-19T15:56:21;29.80;71.10
23769;DHT22;12064;50.890;5.424;2022-08-19T16:05:16;29.90;70.70
23769;DHT22;12064;50.890;5.424;2022-08-19T16:14:25;29.80;71.10
23769;DHT22;12064;50.890;5.424;2022-08-19T16:23:16;29.80;71.20
23769;DHT22;12064;50.890;5.424;2022-08-19T16:32:09;29.80;71.20
23769;DHT22;12064;50.890;5.424;2022-08-19T16:41:00;29.90;70.90
23769;DHT22;12064;50.890;5.424;2022-08-19T16:49:51;29.90;71.20
23769;DHT22;12064;50.890;5.424;2022-08-19T16:58:41;29.90;71.20
23769;DHT22;12064;50.890;5.424;2022-08-19T17:07:32;29.90;70.90
23769;DHT22;12064;50.890;5.424;2022-08-19T17:16:25;30.00;70.60
23769;DHT22;12064;50.890;5.424;2022-08-19T17:25:19;30.00;70.80
23769;DHT22;12064;50.890;5.424;2022-08-19T17:34:13;29.90;71.10
23769;DHT22;12064;50.890;5.424;2022-08-19T17:43:04;30.00;70.40
23769;DHT22;12064;50.890;5.424;2022-08-19T17:51:57;30.00;71.30
23769;DHT22;12064;50.890;5.424;2022-08-19T18:00:51;29.90;70.90
23769;DHT22;12064;50.890;5.424;2022-08-19T18:09:44;30.10;70.40
23769;DHT22;12064;50.890;5.424;2022-08-19T18:18:41;30.10;70.40
23769;DHT22;12064;50.890;5.424;2022-08-19T18:27:33;30.00;71.10
23769;DHT22;12064;50.890;5.424;2022-08-19T18:36:26;30.00;70.50
23769;DHT22;12064;50.890;5.424;2022-08-19T18:45:20;30.10;70.20
23769;DHT22;12064;50.890;5.424;2022-08-19T18:54:29;30.00;70.20
23769;DHT22;12064;50.890;5.424;2022-08-19T19:03:26;30.00;70.20
23769;DHT22;12064;50.890;5.424;2022-08-19T19:12:17;30.00;70.10
23769;DHT22;12064;50.890;5.424;2022-08-19T19:21:08;30.00;70.20
23769;DHT22;12064;50.890;5.424;2022-08-19T19:29:59;30.10;70.20
23769;DHT22;12064;50.890;5.424;2022-08-19T19:38:50;30.10;70.00
23769;DHT22;12064;50.890;5.424;2022-08-19T19:47:41;30.10;69.90
23769;DHT22;12064;50.890;5.424;2022-08-19T19:56:42;30.10;69.80
23769;DHT22;12064;50.890;5.424;2022-08-19T20:05:34;30.10;69.80
23769;DHT22;12064;50.890;5.424;2022-08-19T20:14:28;30.10;69.80
23769;DHT22;12064;50.890;5.424;2022-08-19T20:23:21;30.10;69.80
23769;DHT22;12064;50.890;5.424;2022-08-19T20:32:12;30.10;69.80
23769;DHT22;12064;50.890;5.424;2022-08-19T20:41:03;30.10;69.70
23769;DHT22;12064;50.890;5.424;2022-08-19T20:49:55;30.10;69.80
23769;DHT22;12064;50.890;5.424;2022-08-19T20:58:45;29.90;70.10
23769;DHT22;12064;50.890;5.424;2022-08-19T21:07:36;29.90;70.30
23769;DHT22;12064;50.890;5.424;2022-08-19T21:16:27;29.90;70.20
23769;DHT22;12064;50.890;5.424;2022-08-19T21:25:22;29.80;70.40
23769;DHT22;12064;50.890;5.424;2022-08-19T21:34:12;29.80;70.50
23769;DHT22;12064;50.890;5.424;2022-08-19T21:43:03;29.80;70.30
23769;DHT22;12064;50.890;5.424;2022-08-19T21:51:57;29.90;70.30
23769;DHT22;12064;50.890;5.424;2022-08-19T22:00:48;29.80;70.50
23769;DHT22;12064;50.890;5.424;2022-08-19T22:09:40;29.90;70.50
23769;DHT22;12064;50.890;5.424;2022-08-19T22:18:31;29.90;70.40
23769;DHT22;12064;50.890;5.424;2022-08-19T22:27:24;29.90;70.90
23769;DHT22;12064;50.890;5.424;2022-08-19T22:36:15;29.90;70.10
23769;DHT22;12064;50.890;5.424;2022-08-19T22:45:08;29.80;70.40
23769;DHT22;12064;50.890;5.424;2022-08-19T22:53:59;29.70;70.60
23769;DHT22;12064;50.890;5.424;2022-08-19T23:02:50;29.80;70.60
23769;DHT22;12064;50.890;5.424;2022-08-19T23:11:41;29.90;70.20
23769;DHT22;12064;50.890;5.424;2022-08-19T23:20:34;29.90;70.10
23769;DHT22;12064;50.890;5.424;2022-08-19T23:29:25;30.00;70.10
23769;DHT22;12064;50.890;5.424;2022-08-19T23:38:34;30.00;69.90
23769;DHT22;12064;50.890;5.424;2022-08-19T23:47:25;30.00;69.80
23769;DHT22;12064;50.890;5.424;2022-08-19T23:56:19;30.00;69.90
